createdAt,value
2022-08-26T00:01:30.913Z,21.62
2022-08-26T00:03:58.342Z,21.53
2022-08-26T00:06:25.565Z,21.40
2022-08-26T00:08:52.076Z,21.40
2022-08-26T00:11:26.635Z,21.08
2022-08-26T00:13:54.180Z,20.90
2022-08-26T00:16:20.648Z,21.05
2022-08-26T00:18:47.267Z,21.00
2022-08-26T00:21:13.667Z,21.01
2022-08-26T00:23:40.521Z,20.95
2022-08-26T00:26:07.005Z,21.05
2022-08-26T00:28:35.278Z,21.20
2022-08-26T00:31:01.836Z,21.19
2022-08-26T00:33:28.339Z,20.90
2022-08-26T00:35:54.834Z,20.89
2022-08-26T00:38:23.013Z,20.83
2022-08-26T00:40:53.531Z,20.81
2022-08-26T00:43:22.545Z,20.84
2022-08-26T00:46:11.823Z,20.85
2022-08-26T00:48:42.266Z,20.93
2022-08-26T00:51:15.309Z,21.00
2022-08-26T00:53:48.676Z,21.00
2022-08-26T00:56:25.594Z,20.91
2022-08-26T00:58:53.314Z,20.62
2022-08-26T01:01:19.832Z,20.44
2022-08-26T01:03:49.823Z,20.44
2022-08-26T01:06:16.978Z,20.60
2022-08-26T01:08:43.504Z,20.61
2022-08-26T01:11:11.570Z,20.77
2022-08-26T01:13:38.788Z,20.83
2022-08-26T01:16:10.448Z,20.85
2022-08-26T01:18:37.190Z,20.73
2022-08-26T01:21:17.884Z,20.51
2022-08-26T01:23:48.245Z,20.34
2022-08-26T01:26:42.630Z,20.17
2022-08-26T01:29:13.497Z,20.16
2022-08-26T01:31:46.737Z,20.14
2022-08-26T01:34:27.550Z,20.10
2022-08-26T01:37:19.871Z,20.11
2022-08-26T01:39:52.774Z,20.10
2022-08-26T01:42:22.320Z,20.11
2022-08-26T01:45:01.271Z,20.15
2022-08-26T01:47:31.381Z,20.19
2022-08-26T01:50:02.975Z,20.21
2022-08-26T01:52:32.627Z,20.15
2022-08-26T01:54:59.813Z,20.08
2022-08-26T01:57:27.105Z,20.03
2022-08-26T01:59:57.500Z,20.02
2022-08-26T02:02:24.526Z,20.07
2022-08-26T02:04:59.674Z,20.10
2022-08-26T02:07:27.774Z,20.12
2022-08-26T02:09:55.384Z,20.08
2022-08-26T02:12:22.426Z,19.98
2022-08-26T02:14:58.129Z,19.70
2022-08-26T02:17:33.569Z,19.66
2022-08-26T02:20:02.218Z,19.63
2022-08-26T02:22:31.091Z,19.64
2022-08-26T02:25:09.137Z,19.64
2022-08-26T02:27:37.312Z,19.57
2022-08-26T02:30:13.208Z,19.48
2022-08-26T02:32:40.209Z,19.53
2022-08-26T02:35:09.602Z,19.66
2022-08-26T02:37:36.120Z,19.62
2022-08-26T02:40:05.236Z,19.55
2022-08-26T02:42:32.270Z,19.54
2022-08-26T02:44:59.250Z,19.63
2022-08-26T02:47:29.088Z,19.52
2022-08-26T02:49:55.849Z,19.41
2022-08-26T02:52:22.287Z,19.33
2022-08-26T02:54:49.625Z,19.39
2022-08-26T02:57:16.943Z,19.54
2022-08-26T02:59:43.669Z,19.66
2022-08-26T03:02:11.216Z,19.77
2022-08-26T03:04:39.760Z,19.87
2022-08-26T03:07:07.110Z,19.81
2022-08-26T03:09:33.882Z,19.74
2022-08-26T03:12:00.939Z,19.68
2022-08-26T03:14:27.533Z,19.72
2022-08-26T03:16:54.684Z,19.72
2022-08-26T03:19:23.986Z,19.77
2022-08-26T03:21:51.722Z,19.77
2022-08-26T03:24:19.856Z,19.76
2022-08-26T03:26:52.752Z,19.77
2022-08-26T03:29:43.626Z,19.58
2022-08-26T03:32:12.642Z,19.40
2022-08-26T03:34:39.164Z,19.20
2022-08-26T03:37:05.940Z,19.16
2022-08-26T03:39:32.624Z,19.34
2022-08-26T03:41:59.599Z,19.47
2022-08-26T03:44:26.658Z,19.36
2022-08-26T03:46:54.584Z,19.35
2022-08-26T03:49:21.607Z,19.34
2022-08-26T03:51:48.059Z,19.24
2022-08-26T03:54:14.835Z,19.18
2022-08-26T03:56:41.680Z,19.03
2022-08-26T03:59:08.762Z,18.96
2022-08-26T04:01:36.235Z,18.86
2022-08-26T04:04:03.397Z,18.76
2022-08-26T04:06:37.998Z,18.71
2022-08-26T04:09:09.715Z,18.64
2022-08-26T04:11:38.605Z,18.56
2022-08-26T04:14:14.030Z,18.50
2022-08-26T04:16:45.211Z,18.54
2022-08-26T04:19:13.760Z,18.62
2022-08-26T04:21:41.277Z,18.65
2022-08-26T04:24:12.247Z,18.73
2022-08-26T04:26:42.808Z,18.81
2022-08-26T04:29:19.318Z,18.91
2022-08-26T04:31:48.034Z,19.05
2022-08-26T04:34:15.602Z,18.97
2022-08-26T04:36:43.174Z,18.92
2022-08-26T04:39:16.621Z,18.95
2022-08-26T04:41:45.525Z,19.07
2022-08-26T04:44:12.852Z,19.12
2022-08-26T04:46:43.744Z,19.26
2022-08-26T04:49:11.699Z,19.23
2022-08-26T04:51:39.627Z,19.15
2022-08-26T04:54:07.322Z,19.12
2022-08-26T04:56:38.087Z,19.10
2022-08-26T04:59:08.153Z,19.18
2022-08-26T05:01:49.098Z,19.12
2022-08-26T05:04:18.930Z,19.22
2022-08-26T05:06:46.753Z,19.11
2022-08-26T05:09:14.106Z,19.07
2022-08-26T05:11:41.938Z,19.08
2022-08-26T05:14:08.435Z,19.16
2022-08-26T05:16:34.955Z,19.16
2022-08-26T05:19:01.468Z,19.20
2022-08-26T05:21:29.152Z,19.17
2022-08-26T05:23:56.517Z,19.17
2022-08-26T05:26:28.827Z,19.36
2022-08-26T05:28:56.589Z,19.44
2022-08-26T05:31:27.278Z,19.42
2022-08-26T05:33:55.378Z,19.50
2022-08-26T05:36:26.930Z,19.61
2022-08-26T05:38:55.129Z,19.72
2022-08-26T05:41:36.459Z,19.74
2022-08-26T05:44:06.833Z,19.80
2022-08-26T05:46:33.765Z,19.96
2022-08-26T05:49:00.995Z,20.06
2022-08-26T05:51:27.581Z,20.10
2022-08-26T05:53:57.048Z,20.35
2022-08-26T05:56:26.052Z,20.51
2022-08-26T05:58:52.557Z,20.59
2022-08-26T06:01:27.651Z,20.56
2022-08-26T06:04:01.737Z,20.59
2022-08-26T06:06:31.707Z,20.80
2022-08-26T06:09:01.210Z,21.00
2022-08-26T06:11:29.576Z,21.17
2022-08-26T06:14:02.716Z,21.30
2022-08-26T06:16:30.749Z,21.37
2022-08-26T06:18:57.595Z,21.57
2022-08-26T06:21:27.812Z,21.80
2022-08-26T06:24:15.962Z,21.81
2022-08-26T06:26:50.357Z,21.90
2022-08-26T06:29:24.059Z,22.10
2022-08-26T06:31:52.827Z,22.18
2022-08-26T06:34:20.030Z,22.35
2022-08-26T06:36:47.754Z,22.64
2022-08-26T06:39:16.125Z,23.78
2022-08-26T06:41:44.954Z,25.24
2022-08-26T06:44:13.292Z,26.62
2022-08-26T06:46:41.627Z,27.42
2022-08-26T06:49:12.381Z,28.21
2022-08-26T06:51:40.796Z,28.18
2022-08-26T06:54:10.191Z,28.10
2022-08-26T06:56:42.666Z,27.69
2022-08-26T06:59:11.180Z,28.00
2022-08-26T07:01:44.841Z,27.94
2022-08-26T07:04:15.510Z,28.13
2022-08-26T07:06:48.778Z,28.93
2022-08-26T07:09:16.146Z,28.83
2022-08-26T07:11:44.445Z,29.11
2022-08-26T07:14:12.053Z,28.66
2022-08-26T07:16:39.711Z,28.88
2022-08-26T07:19:11.161Z,28.25
2022-08-26T07:21:40.260Z,27.90
2022-08-26T07:24:07.976Z,27.24
2022-08-26T07:26:34.862Z,26.95
2022-08-26T07:29:02.315Z,26.87
2022-08-26T07:31:39.589Z,26.67
2022-08-26T07:34:10.600Z,26.18
2022-08-26T07:36:37.512Z,26.26
2022-08-26T07:39:04.381Z,27.09
2022-08-26T07:41:31.011Z,28.22
2022-08-26T07:43:58.632Z,30.10
2022-08-26T07:46:27.075Z,31.05
2022-08-26T07:48:57.580Z,32.16
2022-08-26T07:51:24.895Z,32.10
2022-08-26T07:53:52.758Z,33.06
2022-08-26T07:56:23.050Z,34.01
2022-08-26T07:58:52.115Z,32.49
2022-08-26T08:01:20.701Z,30.70
2022-08-26T08:03:50.501Z,32.26
2022-08-26T08:06:21.214Z,31.97
2022-08-26T08:08:50.709Z,30.90
2022-08-26T08:11:22.657Z,30.60
2022-08-26T08:13:56.242Z,30.58
2022-08-26T08:16:25.005Z,30.59
2022-08-26T08:18:53.492Z,31.62
2022-08-26T08:21:23.644Z,32.16
2022-08-26T08:23:53.095Z,31.60
2022-08-26T08:26:20.249Z,30.51
2022-08-26T08:28:48.038Z,29.73
2022-08-26T08:31:45.061Z,29.41
2022-08-26T08:34:09.754Z,30.01
2022-08-26T08:36:36.478Z,30.67
2022-08-26T08:39:03.720Z,30.79
2022-08-26T08:41:58.667Z,31.11
2022-08-26T08:46:58.708Z,30.60
2022-08-26T08:49:26.248Z,29.98
2022-08-26T08:52:27.052Z,29.22
2022-08-26T08:54:56.377Z,28.39
2022-08-26T08:57:43.297Z,28.84
2022-08-26T09:00:21.610Z,31.72
2022-08-26T09:03:01.280Z,33.80
2022-08-26T09:05:40.115Z,33.86
2022-08-26T09:08:14.828Z,34.69
2022-08-26T09:10:47.570Z,35.51
2022-08-26T09:13:19.588Z,35.80
2022-08-26T09:16:03.209Z,34.82
2022-08-26T09:18:51.572Z,33.65
2022-08-26T09:21:20.297Z,32.54
2022-08-26T09:23:50.992Z,32.28
2022-08-26T09:26:48.998Z,31.13
2022-08-26T09:29:23.183Z,32.07
2022-08-26T09:31:51.775Z,33.18
2022-08-26T09:34:27.953Z,33.63
2022-08-26T09:36:59.634Z,33.55
2022-08-26T09:39:37.689Z,32.13
2022-08-26T09:42:07.594Z,31.04
2022-08-26T09:44:51.014Z,31.84
2022-08-26T09:47:23.337Z,32.05
2022-08-26T09:50:09.529Z,33.77
2022-08-26T09:52:36.513Z,34.28
2022-08-26T09:55:09.731Z,33.04
2022-08-26T09:57:45.942Z,32.51
2022-08-26T10:00:38.454Z,33.04
2022-08-26T10:03:22.636Z,34.76
2022-08-26T10:06:02.114Z,34.72
2022-08-26T10:08:36.726Z,34.39
2022-08-26T10:11:11.189Z,34.18
2022-08-26T10:13:45.305Z,34.01
2022-08-26T10:16:33.336Z,34.22
2022-08-26T10:19:17.743Z,32.94
2022-08-26T10:22:00.340Z,32.72
2022-08-26T10:24:59.164Z,31.61
2022-08-26T10:27:32.944Z,31.52
2022-08-26T10:30:10.807Z,31.39
2022-08-26T10:32:41.827Z,31.00
2022-08-26T10:35:12.526Z,30.73
2022-08-26T10:37:46.709Z,31.07
2022-08-26T10:40:38.367Z,30.70
2022-08-26T10:43:11.051Z,31.00
2022-08-26T10:45:46.729Z,31.24
2022-08-26T10:48:24.048Z,30.43
2022-08-26T10:50:51.540Z,30.39
2022-08-26T10:53:28.607Z,30.98
2022-08-26T10:56:20.368Z,30.76
2022-08-26T10:59:20.998Z,30.79
2022-08-26T11:02:07.276Z,30.81
2022-08-26T11:04:57.272Z,31.41
2022-08-26T11:07:40.358Z,31.74
2022-08-26T11:10:22.532Z,31.66
2022-08-26T11:12:52.502Z,31.12
2022-08-26T11:15:20.067Z,30.82
2022-08-26T11:17:55.289Z,31.08
2022-08-26T11:20:27.921Z,31.13
2022-08-26T11:22:59.599Z,30.76
2022-08-26T11:25:30.183Z,31.18
2022-08-26T11:28:00.899Z,31.76
2022-08-26T11:30:35.851Z,31.98
2022-08-26T11:33:02.422Z,31.86
2022-08-26T11:35:29.079Z,31.69
2022-08-26T11:38:10.942Z,31.53
2022-08-26T11:40:38.463Z,32.07
2022-08-26T11:43:11.183Z,32.71
2022-08-26T11:45:44.670Z,33.12
2022-08-26T11:48:31.530Z,33.12
2022-08-26T11:51:11.156Z,32.66
2022-08-26T11:53:41.045Z,31.86
2022-08-26T11:56:12.350Z,31.33
2022-08-26T11:58:43.707Z,31.58
2022-08-26T12:01:13.359Z,31.77
2022-08-26T12:03:49.666Z,32.41
2022-08-26T12:06:29.632Z,31.61
2022-08-26T12:09:01.009Z,32.22
2022-08-26T12:11:31.269Z,33.03
2022-08-26T12:14:01.905Z,32.77
2022-08-26T12:16:32.002Z,32.74
2022-08-26T12:18:59.902Z,32.37
2022-08-26T12:21:34.652Z,32.72
2022-08-26T12:24:03.333Z,32.62
2022-08-26T12:26:34.483Z,31.97
2022-08-26T12:29:12.649Z,31.37
2022-08-26T12:31:47.882Z,31.68
2022-08-26T12:34:17.624Z,31.37
2022-08-26T12:36:48.870Z,30.93
2022-08-26T12:39:38.175Z,31.19
2022-08-26T12:42:15.673Z,30.94
2022-08-26T12:44:54.723Z,31.10
2022-08-26T12:47:43.938Z,31.21
2022-08-26T12:50:19.272Z,30.77
2022-08-26T12:53:45.128Z,30.49
2022-08-26T12:56:39.468Z,30.40
2022-08-26T13:00:39.181Z,30.44
2022-08-26T13:04:05.258Z,30.70
2022-08-26T13:06:32.527Z,31.03
2022-08-26T13:09:42.115Z,30.77
2022-08-26T13:12:42.988Z,30.34
2022-08-26T13:15:29.970Z,30.14
2022-08-26T13:18:38.620Z,30.52
2022-08-26T13:21:06.659Z,30.74
2022-08-26T13:23:33.453Z,31.00
2022-08-26T13:26:04.031Z,31.33
2022-08-26T13:28:33.660Z,31.81
2022-08-26T13:31:00.531Z,31.70
2022-08-26T13:33:27.932Z,31.73
2022-08-26T13:35:54.976Z,31.69
2022-08-26T13:38:32.911Z,31.55
2022-08-26T13:41:00.761Z,31.28
2022-08-26T13:43:37.676Z,31.12
2022-08-26T13:46:09.300Z,30.84
2022-08-26T13:48:37.069Z,30.78
2022-08-26T13:51:11.296Z,30.49
2022-08-26T13:53:38.647Z,30.48
2022-08-26T13:56:11.048Z,30.55
2022-08-26T13:58:38.293Z,30.13
2022-08-26T14:01:06.205Z,30.12
2022-08-26T14:03:37.075Z,29.87
2022-08-26T14:06:08.203Z,29.92
2022-08-26T14:08:38.839Z,29.73
2022-08-26T14:11:08.323Z,29.46
2022-08-26T14:16:32.208Z,28.80
2022-08-26T14:19:02.795Z,28.51
2022-08-26T14:24:21.160Z,28.00
2022-08-26T14:26:54.198Z,27.69
2022-08-26T14:32:22.748Z,26.98
2022-08-26T14:34:54.147Z,26.81
2022-08-26T14:38:02.708Z,26.34
2022-08-26T14:40:31.217Z,25.74
2022-08-26T14:43:00.854Z,25.55
2022-08-26T14:45:28.283Z,25.55
2022-08-26T14:47:57.481Z,25.58
2022-08-26T14:50:27.548Z,25.49
2022-08-26T14:53:12.833Z,25.33
2022-08-26T14:55:42.063Z,25.22
2022-08-26T14:58:13.639Z,25.04
2022-08-26T15:00:40.239Z,24.95
2022-08-26T15:03:07.576Z,24.87
2022-08-26T15:05:34.661Z,24.46
2022-08-26T15:08:26.686Z,24.19
2022-08-26T15:11:44.085Z,24.05
2022-08-26T15:21:56.343Z,23.60
2022-08-26T15:29:18.040Z,23.42
2022-08-26T15:31:46.058Z,23.87
2022-08-26T15:34:16.669Z,24.08
2022-08-26T15:36:48.146Z,23.94
2022-08-26T15:42:25.188Z,22.96
2022-08-26T15:44:52.355Z,23.17
2022-08-26T15:47:19.248Z,23.06
2022-08-26T15:49:46.043Z,23.13
2022-08-26T15:52:12.820Z,23.04
2022-08-26T15:54:39.676Z,23.04
2022-08-26T15:57:10.825Z,22.98
2022-08-26T15:59:38.422Z,23.09
2022-08-26T16:02:05.559Z,23.15
2022-08-26T16:04:32.317Z,23.19
2022-08-26T16:06:59.398Z,23.16
2022-08-26T16:09:27.183Z,23.09
2022-08-26T16:11:55.841Z,23.02
2022-08-26T16:14:23.621Z,22.97
2022-08-26T16:16:50.647Z,22.95
2022-08-26T16:19:17.993Z,23.01
2022-08-26T16:21:46.232Z,23.10
2022-08-26T16:24:13.711Z,22.89
2022-08-26T16:26:42.554Z,22.96
2022-08-26T16:29:13.919Z,22.93
2022-08-26T16:31:41.957Z,22.64
2022-08-26T16:34:09.318Z,22.61
2022-08-26T16:36:38.091Z,22.49
2022-08-26T16:39:06.222Z,22.31
2022-08-26T16:41:33.833Z,21.92
2022-08-26T16:44:01.186Z,21.60
2022-08-26T16:46:29.035Z,21.43
2022-08-26T16:49:45.267Z,21.15
2022-08-26T16:55:22.962Z,20.99
2022-08-26T16:57:54.531Z,20.95
2022-08-26T17:00:34.660Z,20.88
2022-08-26T17:03:06.400Z,20.82
2022-08-26T17:08:28.454Z,20.83
2022-08-26T17:13:58.306Z,20.88
2022-08-26T17:35:40.261Z,20.71
2022-08-26T17:38:08.112Z,20.54
2022-08-26T17:40:35.827Z,20.64
2022-08-26T17:43:10.337Z,20.67
2022-08-26T17:45:40.514Z,20.76
2022-08-26T17:48:15.451Z,20.78
2022-08-26T17:50:45.459Z,20.82
2022-08-26T17:53:18.912Z,20.93
2022-08-26T17:55:49.913Z,20.94
2022-08-26T17:58:19.878Z,20.99
2022-08-26T18:00:49.049Z,21.04
2022-08-26T18:03:16.395Z,21.06
2022-08-26T18:05:49.296Z,21.06
2022-08-26T18:08:24.948Z,21.20
2022-08-26T18:10:55.514Z,21.33
2022-08-26T18:13:24.041Z,21.52
2022-08-26T18:15:52.670Z,21.70
2022-08-26T18:18:19.848Z,21.74
2022-08-26T18:20:47.297Z,21.88
2022-08-26T18:23:20.381Z,21.72
2022-08-26T18:25:47.223Z,21.56
2022-08-26T18:28:15.732Z,21.45
2022-08-26T18:30:46.862Z,21.53
2022-08-26T18:33:15.096Z,21.66
2022-08-26T18:35:49.265Z,21.53
2022-08-26T18:38:22.456Z,21.35
2022-08-26T18:40:54.331Z,21.16
2022-08-26T18:43:22.430Z,21.11
2022-08-26T18:45:50.198Z,20.98
2022-08-26T18:48:17.547Z,21.00
2022-08-26T18:50:50.129Z,21.10
2022-08-26T18:53:27.962Z,21.25
2022-08-26T18:55:57.185Z,21.40
2022-08-26T18:58:24.620Z,21.47
2022-08-26T19:00:52.547Z,21.20
2022-08-26T19:03:20.275Z,21.05
2022-08-26T19:05:50.522Z,21.08
2022-08-26T19:08:17.752Z,21.09
2022-08-26T19:10:46.764Z,21.07
2022-08-26T19:13:16.686Z,21.02
2022-08-26T19:15:46.001Z,20.99
2022-08-26T19:21:03.728Z,21.04
2022-08-26T19:23:35.759Z,21.21
2022-08-26T19:26:06.513Z,21.23
2022-08-26T19:28:33.982Z,21.22
2022-08-26T19:31:03.572Z,21.19
2022-08-26T19:33:31.901Z,20.95
2022-08-26T19:36:04.796Z,20.85
2022-08-26T19:38:36.480Z,20.79
2022-08-26T19:41:06.606Z,20.86
2022-08-26T19:43:33.649Z,20.90
2022-08-26T19:46:01.263Z,20.89
2022-08-26T19:48:39.301Z,20.91
2022-08-26T19:51:08.161Z,20.92
2022-08-26T19:53:35.925Z,20.91
2022-08-26T19:56:12.064Z,20.94
2022-08-26T19:58:39.408Z,20.94
2022-08-26T20:01:07.149Z,20.96
2022-08-26T20:03:35.373Z,20.98
2022-08-26T20:06:07.859Z,20.92
2022-08-26T20:08:36.320Z,20.87
2022-08-26T20:11:06.015Z,20.91
2022-08-26T20:13:33.397Z,20.94
2022-08-26T20:16:00.144Z,20.93
2022-08-26T20:18:45.385Z,20.81
2022-08-26T20:21:28.053Z,20.76
2022-08-26T20:23:59.240Z,20.85
2022-08-26T20:26:27.446Z,20.91
2022-08-26T20:28:55.034Z,20.76
2022-08-26T20:31:21.781Z,20.75
2022-08-26T20:33:48.921Z,20.72
2022-08-26T20:36:20.223Z,20.57
2022-08-26T20:38:49.223Z,20.33
2022-08-26T20:41:17.314Z,20.23
2022-08-26T20:43:44.433Z,20.22
2022-08-26T20:46:12.789Z,20.10
2022-08-26T20:48:45.916Z,20.20
2022-08-26T20:51:12.907Z,20.27
2022-08-26T20:53:39.790Z,20.32
2022-08-26T20:56:09.591Z,20.33
2022-08-26T20:58:37.464Z,20.37
2022-08-26T21:01:07.973Z,20.38
2022-08-26T21:03:36.569Z,20.36
2022-08-26T21:06:04.018Z,20.37
2022-08-26T21:08:32.030Z,20.39
2022-08-26T21:11:00.395Z,20.51
2022-08-26T21:13:29.033Z,20.57
2022-08-26T21:16:02.978Z,20.56
2022-08-26T21:18:30.007Z,20.69
2022-08-26T21:20:56.779Z,20.67
2022-08-26T21:23:26.409Z,20.65
2022-08-26T21:25:55.758Z,20.73
2022-08-26T21:28:23.464Z,20.81
2022-08-26T21:30:49.974Z,20.84
2022-08-26T21:33:16.511Z,20.62
2022-08-26T21:35:51.543Z,20.64
2022-08-26T21:38:23.664Z,20.67
2022-08-26T21:40:59.463Z,20.65
2022-08-26T21:43:35.082Z,20.71
2022-08-26T21:46:14.542Z,20.58
2022-08-26T21:48:50.716Z,20.63
2022-08-26T21:51:20.932Z,20.49
2022-08-26T21:53:48.824Z,20.45
2022-08-26T21:56:18.061Z,20.41
2022-08-26T21:58:45.604Z,20.29
2022-08-26T22:01:15.663Z,20.36
2022-08-26T22:03:46.797Z,20.36
2022-08-26T22:06:16.612Z,20.28
2022-08-26T22:08:43.541Z,20.27
2022-08-26T22:11:10.511Z,20.21
2022-08-26T22:13:39.405Z,20.32
2022-08-26T22:16:08.021Z,20.32
2022-08-26T22:18:38.442Z,20.33
2022-08-26T22:21:09.078Z,20.27
2022-08-26T22:23:38.150Z,20.38
2022-08-26T22:26:07.357Z,20.36
2022-08-26T22:28:35.467Z,20.29
2022-08-26T22:31:02.584Z,20.17
2022-08-26T22:33:29.487Z,20.12
2022-08-26T22:35:56.069Z,20.10
2022-08-26T22:38:28.914Z,20.09
2022-08-26T22:40:56.477Z,20.10
2022-08-26T22:43:24.549Z,20.04
2022-08-26T22:45:52.825Z,20.01
2022-08-26T22:48:22.421Z,19.99
2022-08-26T22:50:50.399Z,19.86
2022-08-26T22:53:18.399Z,19.88
2022-08-26T22:55:45.572Z,19.94
2022-08-26T22:58:15.244Z,19.93
2022-08-26T23:00:43.644Z,19.98
2022-08-26T23:03:11.803Z,20.01
2022-08-26T23:05:39.479Z,20.10
2022-08-26T23:08:06.637Z,19.97
2022-08-26T23:10:33.232Z,19.86
2022-08-26T23:13:00.132Z,19.85
2022-08-26T23:15:27.028Z,19.86
2022-08-26T23:17:58.835Z,19.79
2022-08-26T23:20:26.482Z,19.78
2022-08-26T23:22:53.577Z,19.84
2022-08-26T23:25:20.798Z,19.79
2022-08-26T23:27:47.986Z,19.83
2022-08-26T23:30:19.545Z,19.91
2022-08-26T23:32:46.301Z,19.87
2022-08-26T23:35:14.198Z,19.88
2022-08-26T23:37:44.250Z,19.86
2022-08-26T23:40:16.139Z,19.84
2022-08-26T23:42:43.013Z,19.92
2022-08-26T23:45:12.858Z,19.89
2022-08-26T23:47:41.185Z,19.90
2022-08-26T23:50:08.931Z,19.83
2022-08-26T23:52:54.071Z,19.79
2022-08-26T23:55:20.961Z,19.84
2022-08-26T23:57:47.773Z,19.71
